sensor_id;sensor_type;location;lat;lon;timestamp;P1;durP1;ratioP1;P2;durP2;ratioP2
3949;SDS011;53057;50.988;6.314;2023-04-03T00:00:39;15.32;;;13.40;;
3949;SDS011;53057;50.988;6.314;2023-04-03T00:03:06;14.20;;;11.82;;
3949;SDS011;53057;50.988;6.314;2023-04-03T00:05:33;22.92;;;13.98;;
3949;SDS011;53057;50.988;6.314;2023-04-03T00:07:59;20.73;;;12.90;;
3949;SDS011;53057;50.988;6.314;2023-04-03T00:10:28;16.40;;;12.95;;
3949;SDS011;53057;50.988;6.314;2023-04-03T00:12:54;21.92;;;12.82;;
3949;SDS011;53057;50.988;6.314;2023-04-03T00:15:21;29.52;;;13.90;;
3949;SDS011;53057;50.988;6.314;2023-04-03T00:17:47;17.70;;;10.63;;
3949;SDS011;53057;50.988;6.314;2023-04-03T00:20:14;17.90;;;10.73;;
3949;SDS011;53057;50.988;6.314;2023-04-03T00:22:41;15.65;;;10.32;;
3949;SDS011;53057;50.988;6.314;2023-04-03T00:25:07;12.77;;;11.23;;
3949;SDS011;53057;50.988;6.314;2023-04-03T00:27:36;14.75;;;10.55;;
3949;SDS011;53057;50.988;6.314;2023-04-03T00:30:02;17.90;;;10.48;;
3949;SDS011;53057;50.988;6.314;2023-04-03T00:32:29;14.68;;;9.63;;
3949;SDS011;53057;50.988;6.314;2023-04-03T00:34:56;14.90;;;9.82;;
3949;SDS011;53057;50.988;6.314;2023-04-03T00:37:24;13.85;;;10.45;;
3949;SDS011;53057;50.988;6.314;2023-04-03T00:39:50;11.48;;;9.40;;
3949;SDS011;53057;50.988;6.314;2023-04-03T00:42:17;17.05;;;10.93;;
3949;SDS011;53057;50.988;6.314;2023-04-03T00:47:11;13.23;;;10.85;;
3949;SDS011;53057;50.988;6.314;2023-04-03T00:49:38;13.93;;;9.70;;
3949;SDS011;53057;50.988;6.314;2023-04-03T00:52:05;18.98;;;13.13;;
3949;SDS011;53057;50.988;6.314;2023-04-03T00:54:35;15.23;;;11.90;;
3949;SDS011;53057;50.988;6.314;2023-04-03T00:57:02;21.23;;;13.60;;
3949;SDS011;53057;50.988;6.314;2023-04-03T00:59:33;22.58;;;15.00;;
3949;SDS011;53057;50.988;6.314;2023-04-03T01:02:00;18.98;;;13.02;;
3949;SDS011;53057;50.988;6.314;2023-04-03T01:04:32;25.38;;;13.23;;
3949;SDS011;53057;50.988;6.314;2023-04-03T01:07:04;19.98;;;14.65;;
3949;SDS011;53057;50.988;6.314;2023-04-03T01:09:33;27.27;;;14.50;;
3949;SDS011;53057;50.988;6.314;2023-04-03T01:12:19;17.52;;;12.63;;
3949;SDS011;53057;50.988;6.314;2023-04-03T01:14:49;21.95;;;14.73;;
3949;SDS011;53057;50.988;6.314;2023-04-03T01:17:30;30.40;;;16.05;;
3949;SDS011;53057;50.988;6.314;2023-04-03T01:20:02;23.67;;;14.48;;
3949;SDS011;53057;50.988;6.314;2023-04-03T01:23:20;24.35;;;14.50;;
3949;SDS011;53057;50.988;6.314;2023-04-03T01:25:20;24.40;;;14.07;;
3949;SDS011;53057;50.988;6.314;2023-04-03T01:27:47;27.75;;;15.02;;
3949;SDS011;53057;50.988;6.314;2023-04-03T01:30:14;30.48;;;14.35;;
3949;SDS011;53057;50.988;6.314;2023-04-03T01:32:42;26.45;;;13.63;;
3949;SDS011;53057;50.988;6.314;2023-04-03T01:35:11;31.73;;;14.95;;
3949;SDS011;53057;50.988;6.314;2023-04-03T01:37:38;26.70;;;14.68;;
3949;SDS011;53057;50.988;6.314;2023-04-03T01:40:05;18.77;;;14.13;;
3949;SDS011;53057;50.988;6.314;2023-04-03T01:42:32;28.48;;;14.27;;
3949;SDS011;53057;50.988;6.314;2023-04-03T01:44:59;27.05;;;14.45;;
3949;SDS011;53057;50.988;6.314;2023-04-03T01:47:25;28.77;;;16.40;;
3949;SDS011;53057;50.988;6.314;2023-04-03T01:49:52;19.20;;;14.43;;
3949;SDS011;53057;50.988;6.314;2023-04-03T01:52:18;29.30;;;16.50;;
3949;SDS011;53057;50.988;6.314;2023-04-03T01:54:45;28.67;;;16.30;;
3949;SDS011;53057;50.988;6.314;2023-04-03T01:57:12;29.40;;;17.08;;
3949;SDS011;53057;50.988;6.314;2023-04-03T01:59:40;27.48;;;18.70;;
3949;SDS011;53057;50.988;6.314;2023-04-03T02:02:06;30.08;;;17.98;;
3949;SDS011;53057;50.988;6.314;2023-04-03T02:04:33;36.97;;;19.83;;
3949;SDS011;53057;50.988;6.314;2023-04-03T02:06:59;30.10;;;19.33;;
3949;SDS011;53057;50.988;6.314;2023-04-03T02:09:26;25.00;;;18.45;;
3949;SDS011;53057;50.988;6.314;2023-04-03T02:11:53;28.83;;;18.17;;
3949;SDS011;53057;50.988;6.314;2023-04-03T02:14:19;34.75;;;19.58;;
3949;SDS011;53057;50.988;6.314;2023-04-03T02:16:48;26.38;;;17.95;;
3949;SDS011;53057;50.988;6.314;2023-04-03T02:19:14;32.00;;;18.75;;
3949;SDS011;53057;50.988;6.314;2023-04-03T02:21:41;24.27;;;18.02;;
3949;SDS011;53057;50.988;6.314;2023-04-03T02:24:08;31.80;;;17.88;;
3949;SDS011;53057;50.988;6.314;2023-04-03T02:26:34;30.58;;;19.52;;
3949;SDS011;53057;50.988;6.314;2023-04-03T02:29:01;34.28;;;19.85;;
3949;SDS011;53057;50.988;6.314;2023-04-03T02:31:29;26.48;;;17.30;;
3949;SDS011;53057;50.988;6.314;2023-04-03T02:33:57;26.42;;;17.42;;
3949;SDS011;53057;50.988;6.314;2023-04-03T02:36:24;27.65;;;18.35;;
3949;SDS011;53057;50.988;6.314;2023-04-03T02:38:55;27.02;;;17.90;;
3949;SDS011;53057;50.988;6.314;2023-04-03T02:41:21;26.75;;;17.80;;
3949;SDS011;53057;50.988;6.314;2023-04-03T02:43:50;33.15;;;20.27;;
3949;SDS011;53057;50.988;6.314;2023-04-03T02:46:16;38.55;;;22.33;;
3949;SDS011;53057;50.988;6.314;2023-04-03T02:48:43;37.97;;;22.00;;
3949;SDS011;53057;50.988;6.314;2023-04-03T02:51:09;47.05;;;24.45;;
3949;SDS011;53057;50.988;6.314;2023-04-03T02:53:36;37.63;;;25.98;;
3949;SDS011;53057;50.988;6.314;2023-04-03T02:56:09;46.30;;;26.95;;
3949;SDS011;53057;50.988;6.314;2023-04-03T02:58:36;53.72;;;27.50;;
3949;SDS011;53057;50.988;6.314;2023-04-03T03:01:04;47.47;;;27.13;;
3949;SDS011;53057;50.988;6.314;2023-04-03T03:03:31;49.95;;;29.20;;
3949;SDS011;53057;50.988;6.314;2023-04-03T03:06:01;43.45;;;27.90;;
3949;SDS011;53057;50.988;6.314;2023-04-03T03:08:28;43.92;;;28.55;;
3949;SDS011;53057;50.988;6.314;2023-04-03T03:10:55;43.75;;;26.98;;
3949;SDS011;53057;50.988;6.314;2023-04-03T03:13:21;43.65;;;26.80;;
3949;SDS011;53057;50.988;6.314;2023-04-03T03:15:48;44.08;;;27.13;;
3949;SDS011;53057;50.988;6.314;2023-04-03T03:18:14;45.33;;;26.08;;
3949;SDS011;53057;50.988;6.314;2023-04-03T03:20:41;42.90;;;25.70;;
3949;SDS011;53057;50.988;6.314;2023-04-03T03:23:08;43.85;;;25.60;;
3949;SDS011;53057;50.988;6.314;2023-04-03T03:25:40;34.97;;;24.52;;
3949;SDS011;53057;50.988;6.314;2023-04-03T03:28:07;39.60;;;23.42;;
3949;SDS011;53057;50.988;6.314;2023-04-03T03:30:34;44.28;;;23.40;;
3949;SDS011;53057;50.988;6.314;2023-04-03T03:33:01;45.92;;;21.75;;
3949;SDS011;53057;50.988;6.314;2023-04-03T03:35:28;37.67;;;22.42;;
3949;SDS011;53057;50.988;6.314;2023-04-03T03:37:55;34.15;;;19.08;;
3949;SDS011;53057;50.988;6.314;2023-04-03T03:40:22;27.90;;;19.80;;
3949;SDS011;53057;50.988;6.314;2023-04-03T03:42:49;34.47;;;22.02;;
3949;SDS011;53057;50.988;6.314;2023-04-03T03:45:16;40.60;;;20.20;;
3949;SDS011;53057;50.988;6.314;2023-04-03T03:47:42;45.70;;;21.40;;
3949;SDS011;53057;50.988;6.314;2023-04-03T03:50:09;40.78;;;22.52;;
3949;SDS011;53057;50.988;6.314;2023-04-03T03:52:36;37.42;;;22.15;;
3949;SDS011;53057;50.988;6.314;2023-04-03T03:55:02;34.08;;;21.42;;
3949;SDS011;53057;50.988;6.314;2023-04-03T03:57:29;43.95;;;22.67;;
3949;SDS011;53057;50.988;6.314;2023-04-03T03:59:57;39.47;;;23.40;;
3949;SDS011;53057;50.988;6.314;2023-04-03T04:02:24;45.40;;;24.52;;
3949;SDS011;53057;50.988;6.314;2023-04-03T04:04:52;49.40;;;23.73;;
3949;SDS011;53057;50.988;6.314;2023-04-03T04:07:19;39.10;;;23.10;;
3949;SDS011;53057;50.988;6.314;2023-04-03T04:09:45;50.00;;;24.92;;
3949;SDS011;53057;50.988;6.314;2023-04-03T04:12:12;34.38;;;22.98;;
3949;SDS011;53057;50.988;6.314;2023-04-03T04:14:39;37.90;;;23.42;;
3949;SDS011;53057;50.988;6.314;2023-04-03T04:17:08;39.58;;;25.05;;
3949;SDS011;53057;50.988;6.314;2023-04-03T04:19:36;34.75;;;22.30;;
3949;SDS011;53057;50.988;6.314;2023-04-03T04:22:02;31.15;;;21.90;;
3949;SDS011;53057;50.988;6.314;2023-04-03T04:24:30;39.13;;;22.73;;
3949;SDS011;53057;50.988;6.314;2023-04-03T04:26:57;37.67;;;21.52;;
3949;SDS011;53057;50.988;6.314;2023-04-03T04:29:24;40.45;;;23.60;;
3949;SDS011;53057;50.988;6.314;2023-04-03T04:31:51;31.05;;;19.60;;
3949;SDS011;53057;50.988;6.314;2023-04-03T04:34:19;42.05;;;19.08;;
3949;SDS011;53057;50.988;6.314;2023-04-03T04:36:46;38.42;;;21.60;;
3949;SDS011;53057;50.988;6.314;2023-04-03T04:39:13;34.70;;;21.45;;
3949;SDS011;53057;50.988;6.314;2023-04-03T04:41:40;26.48;;;18.13;;
3949;SDS011;53057;50.988;6.314;2023-04-03T04:44:07;31.98;;;18.00;;
3949;SDS011;53057;50.988;6.314;2023-04-03T04:46:35;29.63;;;18.48;;
3949;SDS011;53057;50.988;6.314;2023-04-03T04:49:02;23.60;;;15.63;;
3949;SDS011;53057;50.988;6.314;2023-04-03T04:51:30;27.73;;;17.58;;
3949;SDS011;53057;50.988;6.314;2023-04-03T04:54:14;43.10;;;19.20;;
3949;SDS011;53057;50.988;6.314;2023-04-03T04:56:42;34.97;;;17.45;;
3949;SDS011;53057;50.988;6.314;2023-04-03T04:59:09;35.97;;;19.23;;
3949;SDS011;53057;50.988;6.314;2023-04-03T05:01:35;29.45;;;16.80;;
3949;SDS011;53057;50.988;6.314;2023-04-03T05:04:13;37.67;;;20.85;;
3949;SDS011;53057;50.988;6.314;2023-04-03T05:06:40;27.50;;;17.77;;
3949;SDS011;53057;50.988;6.314;2023-04-03T05:09:12;30.25;;;17.17;;
3949;SDS011;53057;50.988;6.314;2023-04-03T05:11:40;46.60;;;19.38;;
3949;SDS011;53057;50.988;6.314;2023-04-03T05:14:07;34.90;;;20.13;;
3949;SDS011;53057;50.988;6.314;2023-04-03T05:16:35;42.70;;;19.25;;
3949;SDS011;53057;50.988;6.314;2023-04-03T05:19:01;32.17;;;19.20;;
3949;SDS011;53057;50.988;6.314;2023-04-03T05:21:28;38.42;;;21.08;;
3949;SDS011;53057;50.988;6.314;2023-04-03T05:24:01;31.42;;;18.80;;
3949;SDS011;53057;50.988;6.314;2023-04-03T05:26:31;35.83;;;16.95;;
3949;SDS011;53057;50.988;6.314;2023-04-03T05:28:58;33.90;;;18.58;;
3949;SDS011;53057;50.988;6.314;2023-04-03T05:31:25;37.33;;;18.55;;
3949;SDS011;53057;50.988;6.314;2023-04-03T05:33:52;28.75;;;16.88;;
3949;SDS011;53057;50.988;6.314;2023-04-03T05:36:19;24.98;;;17.00;;
3949;SDS011;53057;50.988;6.314;2023-04-03T05:38:51;25.17;;;17.23;;
3949;SDS011;53057;50.988;6.314;2023-04-03T05:41:18;26.75;;;17.10;;
3949;SDS011;53057;50.988;6.314;2023-04-03T05:43:49;35.58;;;16.75;;
3949;SDS011;53057;50.988;6.314;2023-04-03T05:46:17;29.85;;;16.60;;
3949;SDS011;53057;50.988;6.314;2023-04-03T05:48:49;23.98;;;15.18;;
3949;SDS011;53057;50.988;6.314;2023-04-03T05:51:21;25.87;;;12.00;;
3949;SDS011;53057;50.988;6.314;2023-04-03T05:53:52;17.90;;;12.90;;
3949;SDS011;53057;50.988;6.314;2023-04-03T05:56:21;17.40;;;12.87;;
3949;SDS011;53057;50.988;6.314;2023-04-03T05:58:48;16.43;;;11.70;;
3949;SDS011;53057;50.988;6.314;2023-04-03T06:01:14;23.93;;;11.63;;
3949;SDS011;53057;50.988;6.314;2023-04-03T06:03:43;16.90;;;10.00;;
3949;SDS011;53057;50.988;6.314;2023-04-03T06:06:12;16.13;;;8.53;;
3949;SDS011;53057;50.988;6.314;2023-04-03T06:08:39;12.00;;;8.57;;
3949;SDS011;53057;50.988;6.314;2023-04-03T06:11:06;17.70;;;9.07;;
3949;SDS011;53057;50.988;6.314;2023-04-03T06:13:33;12.00;;;8.23;;
3949;SDS011;53057;50.988;6.314;2023-04-03T06:15:59;15.93;;;9.00;;
3949;SDS011;53057;50.988;6.314;2023-04-03T06:18:26;13.30;;;8.13;;
3949;SDS011;53057;50.988;6.314;2023-04-03T06:20:53;11.90;;;7.37;;
3949;SDS011;53057;50.988;6.314;2023-04-03T06:23:19;13.63;;;7.70;;
3949;SDS011;53057;50.988;6.314;2023-04-03T06:25:46;11.10;;;8.23;;
3949;SDS011;53057;50.988;6.314;2023-04-03T06:28:13;8.73;;;6.90;;
3949;SDS011;53057;50.988;6.314;2023-04-03T06:30:39;9.00;;;7.07;;
3949;SDS011;53057;50.988;6.314;2023-04-03T06:33:06;10.10;;;6.30;;
3949;SDS011;53057;50.988;6.314;2023-04-03T06:35:33;16.37;;;7.13;;
3949;SDS011;53057;50.988;6.314;2023-04-03T06:38:01;22.43;;;7.10;;
3949;SDS011;53057;50.988;6.314;2023-04-03T06:40:28;8.10;;;6.27;;
3949;SDS011;53057;50.988;6.314;2023-04-03T06:42:54;8.43;;;5.90;;
3949;SDS011;53057;50.988;6.314;2023-04-03T06:45:21;9.50;;;5.90;;
3949;SDS011;53057;50.988;6.314;2023-04-03T06:47:48;11.63;;;5.80;;
3949;SDS011;53057;50.988;6.314;2023-04-03T06:50:14;12.03;;;6.00;;
3949;SDS011;53057;50.988;6.314;2023-04-03T06:52:41;13.30;;;5.80;;
3949;SDS011;53057;50.988;6.314;2023-04-03T06:55:08;17.20;;;6.07;;
3949;SDS011;53057;50.988;6.314;2023-04-03T06:57:35;8.23;;;5.90;;
3949;SDS011;53057;50.988;6.314;2023-04-03T07:00:03;6.80;;;5.67;;
3949;SDS011;53057;50.988;6.314;2023-04-03T07:02:30;13.37;;;6.87;;
3949;SDS011;53057;50.988;6.314;2023-04-03T07:04:57;13.50;;;6.23;;
3949;SDS011;53057;50.988;6.314;2023-04-03T07:07:23;13.30;;;5.67;;
3949;SDS011;53057;50.988;6.314;2023-04-03T07:09:50;7.33;;;5.53;;
3949;SDS011;53057;50.988;6.314;2023-04-03T07:12:17;6.60;;;4.63;;
3949;SDS011;53057;50.988;6.314;2023-04-03T07:14:43;6.40;;;4.60;;
3949;SDS011;53057;50.988;6.314;2023-04-03T07:17:10;15.70;;;6.00;;
3949;SDS011;53057;50.988;6.314;2023-04-03T07:19:37;6.03;;;5.00;;
3949;SDS011;53057;50.988;6.314;2023-04-03T07:22:03;14.53;;;5.20;;
3949;SDS011;53057;50.988;6.314;2023-04-03T07:24:30;8.53;;;6.33;;
3949;SDS011;53057;50.988;6.314;2023-04-03T07:26:56;9.00;;;4.67;;
3949;SDS011;53057;50.988;6.314;2023-04-03T07:29:23;6.47;;;5.40;;
3949;SDS011;53057;50.988;6.314;2023-04-03T07:31:50;15.93;;;6.33;;
3949;SDS011;53057;50.988;6.314;2023-04-03T07:34:17;8.87;;;5.57;;
3949;SDS011;53057;50.988;6.314;2023-04-03T07:36:44;12.13;;;5.77;;
3949;SDS011;53057;50.988;6.314;2023-04-03T07:39:10;7.67;;;4.43;;
3949;SDS011;53057;50.988;6.314;2023-04-03T07:41:37;8.53;;;5.07;;
3949;SDS011;53057;50.988;6.314;2023-04-03T07:44:04;14.13;;;5.70;;
3949;SDS011;53057;50.988;6.314;2023-04-03T07:46:32;13.57;;;5.70;;
3949;SDS011;53057;50.988;6.314;2023-04-03T07:48:58;15.87;;;5.70;;
3949;SDS011;53057;50.988;6.314;2023-04-03T07:51:25;10.90;;;4.47;;
3949;SDS011;53057;50.988;6.314;2023-04-03T07:53:53;7.33;;;4.07;;
3949;SDS011;53057;50.988;6.314;2023-04-03T07:56:19;6.73;;;5.27;;
3949;SDS011;53057;50.988;6.314;2023-04-03T07:58:47;13.27;;;4.50;;
3949;SDS011;53057;50.988;6.314;2023-04-03T08:01:13;7.70;;;4.33;;
3949;SDS011;53057;50.988;6.314;2023-04-03T08:03:40;6.27;;;3.70;;
3949;SDS011;53057;50.988;6.314;2023-04-03T08:06:07;5.33;;;3.33;;
3949;SDS011;53057;50.988;6.314;2023-04-03T08:08:40;8.70;;;4.57;;
3949;SDS011;53057;50.988;6.314;2023-04-03T08:11:07;7.00;;;3.60;;
3949;SDS011;53057;50.988;6.314;2023-04-03T08:13:34;8.23;;;3.70;;
3949;SDS011;53057;50.988;6.314;2023-04-03T08:16:12;8.10;;;3.20;;
3949;SDS011;53057;50.988;6.314;2023-04-03T08:18:39;7.53;;;4.03;;
3949;SDS011;53057;50.988;6.314;2023-04-03T08:21:06;5.17;;;3.03;;
3949;SDS011;53057;50.988;6.314;2023-04-03T08:23:33;14.90;;;4.37;;
3949;SDS011;53057;50.988;6.314;2023-04-03T08:26:05;10.87;;;3.37;;
3949;SDS011;53057;50.988;6.314;2023-04-03T08:28:31;13.73;;;3.93;;
3949;SDS011;53057;50.988;6.314;2023-04-03T08:31:02;8.63;;;4.03;;
3949;SDS011;53057;50.988;6.314;2023-04-03T08:33:29;9.00;;;3.30;;
3949;SDS011;53057;50.988;6.314;2023-04-03T08:35:55;8.00;;;4.00;;
3949;SDS011;53057;50.988;6.314;2023-04-03T08:38:22;5.83;;;3.00;;
3949;SDS011;53057;50.988;6.314;2023-04-03T08:40:59;6.93;;;3.07;;
3949;SDS011;53057;50.988;6.314;2023-04-03T08:43:30;6.87;;;3.40;;
3949;SDS011;53057;50.988;6.314;2023-04-03T08:46:00;8.97;;;2.90;;
3949;SDS011;53057;50.988;6.314;2023-04-03T08:48:33;13.97;;;4.83;;
3949;SDS011;53057;50.988;6.314;2023-04-03T08:51:03;6.87;;;3.10;;
3949;SDS011;53057;50.988;6.314;2023-04-03T08:53:39;4.90;;;2.30;;
3949;SDS011;53057;50.988;6.314;2023-04-03T08:56:07;3.90;;;2.30;;
3949;SDS011;53057;50.988;6.314;2023-04-03T08:58:50;5.37;;;2.90;;
3949;SDS011;53057;50.988;6.314;2023-04-03T09:01:35;5.73;;;2.30;;
3949;SDS011;53057;50.988;6.314;2023-04-03T09:04:03;4.73;;;2.73;;
3949;SDS011;53057;50.988;6.314;2023-04-03T09:06:36;9.93;;;3.67;;
3949;SDS011;53057;50.988;6.314;2023-04-03T09:16:48;8.13;;;2.90;;
3949;SDS011;53057;50.988;6.314;2023-04-03T09:19:34;4.53;;;2.87;;
3949;SDS011;53057;50.988;6.314;2023-04-03T09:22:10;7.90;;;3.47;;
3949;SDS011;53057;50.988;6.314;2023-04-03T09:24:39;6.53;;;2.70;;
3949;SDS011;53057;50.988;6.314;2023-04-03T09:27:07;4.60;;;2.30;;
3949;SDS011;53057;50.988;6.314;2023-04-03T09:29:37;5.53;;;1.37;;
3949;SDS011;53057;50.988;6.314;2023-04-03T09:32:22;4.27;;;2.27;;
3949;SDS011;53057;50.988;6.314;2023-04-03T09:34:52;7.23;;;2.23;;
3949;SDS011;53057;50.988;6.314;2023-04-03T09:38:14;4.60;;;1.97;;
3949;SDS011;53057;50.988;6.314;2023-04-03T09:42:58;3.87;;;1.60;;
3949;SDS011;53057;50.988;6.314;2023-04-03T09:45:28;3.90;;;1.40;;
3949;SDS011;53057;50.988;6.314;2023-04-03T09:53:33;3.70;;;1.40;;
3949;SDS011;53057;50.988;6.314;2023-04-03T09:56:00;5.40;;;2.00;;
3949;SDS011;53057;50.988;6.314;2023-04-03T09:58:33;1.13;;;0.97;;
3949;SDS011;53057;50.988;6.314;2023-04-03T10:01:31;2.50;;;1.10;;
3949;SDS011;53057;50.988;6.314;2023-04-03T10:06:36;3.20;;;2.03;;
3949;SDS011;53057;50.988;6.314;2023-04-03T10:09:15;4.30;;;1.30;;
3949;SDS011;53057;50.988;6.314;2023-04-03T10:14:53;3.90;;;1.47;;
3949;SDS011;53057;50.988;6.314;2023-04-03T10:20:09;1.80;;;0.90;;
3949;SDS011;53057;50.988;6.314;2023-04-03T10:22:49;2.60;;;1.00;;
3949;SDS011;53057;50.988;6.314;2023-04-03T10:25:27;7.73;;;1.20;;
3949;SDS011;53057;50.988;6.314;2023-04-03T10:28:00;1.87;;;1.33;;
3949;SDS011;53057;50.988;6.314;2023-04-03T10:30:48;1.17;;;1.10;;
3949;SDS011;53057;50.988;6.314;2023-04-03T10:36:20;1.13;;;0.90;;
3949;SDS011;53057;50.988;6.314;2023-04-03T10:38:51;7.87;;;1.90;;
3949;SDS011;53057;50.988;6.314;2023-04-03T10:49:06;2.30;;;1.40;;
3949;SDS011;53057;50.988;6.314;2023-04-03T10:51:47;5.03;;;2.03;;
3949;SDS011;53057;50.988;6.314;2023-04-03T10:57:10;2.97;;;1.40;;
3949;SDS011;53057;50.988;6.314;2023-04-03T10:59:56;4.90;;;1.43;;
3949;SDS011;53057;50.988;6.314;2023-04-03T11:04:55;3.37;;;1.50;;
3949;SDS011;53057;50.988;6.314;2023-04-03T11:07:29;3.13;;;1.17;;
3949;SDS011;53057;50.988;6.314;2023-04-03T11:10:02;2.20;;;1.00;;
3949;SDS011;53057;50.988;6.314;2023-04-03T11:12:33;1.43;;;1.10;;
3949;SDS011;53057;50.988;6.314;2023-04-03T11:15:02;2.57;;;1.33;;
3949;SDS011;53057;50.988;6.314;2023-04-03T11:17:37;2.90;;;1.20;;
3949;SDS011;53057;50.988;6.314;2023-04-03T11:22:34;1.30;;;1.17;;
3949;SDS011;53057;50.988;6.314;2023-04-03T11:28:19;2.90;;;1.23;;
3949;SDS011;53057;50.988;6.314;2023-04-03T11:30:30;10.23;;;1.23;;
3949;SDS011;53057;50.988;6.314;2023-04-03T11:35:30;3.20;;;1.53;;
3949;SDS011;53057;50.988;6.314;2023-04-03T11:37:57;1.70;;;1.60;;
3949;SDS011;53057;50.988;6.314;2023-04-03T11:40:28;1.83;;;1.40;;
3949;SDS011;53057;50.988;6.314;2023-04-03T11:45:29;3.10;;;1.60;;
3949;SDS011;53057;50.988;6.314;2023-04-03T11:47:58;2.50;;;2.03;;
3949;SDS011;53057;50.988;6.314;2023-04-03T12:16:02;6.43;;;1.60;;
3949;SDS011;53057;50.988;6.314;2023-04-03T12:18:40;1.97;;;1.37;;
3949;SDS011;53057;50.988;6.314;2023-04-03T12:21:08;2.83;;;2.10;;
3949;SDS011;53057;50.988;6.314;2023-04-03T12:23:36;2.40;;;1.30;;
3949;SDS011;53057;50.988;6.314;2023-04-03T12:26:06;3.80;;;1.73;;
3949;SDS011;53057;50.988;6.314;2023-04-03T12:28:46;2.50;;;1.97;;
3949;SDS011;53057;50.988;6.314;2023-04-03T12:31:13;4.80;;;2.17;;
3949;SDS011;53057;50.988;6.314;2023-04-03T12:33:50;5.50;;;1.70;;
3949;SDS011;53057;50.988;6.314;2023-04-03T12:36:30;4.20;;;1.93;;
3949;SDS011;53057;50.988;6.314;2023-04-03T12:46:34;2.47;;;1.57;;
3949;SDS011;53057;50.988;6.314;2023-04-03T12:49:10;4.40;;;1.27;;
3949;SDS011;53057;50.988;6.314;2023-04-03T12:51:41;1.60;;;1.10;;
3949;SDS011;53057;50.988;6.314;2023-04-03T12:54:19;2.70;;;1.07;;
3949;SDS011;53057;50.988;6.314;2023-04-03T12:56:46;3.63;;;1.40;;
3949;SDS011;53057;50.988;6.314;2023-04-03T13:01:43;1.93;;;1.30;;
3949;SDS011;53057;50.988;6.314;2023-04-03T13:04:11;2.63;;;1.37;;
3949;SDS011;53057;50.988;6.314;2023-04-03T13:06:42;4.17;;;1.23;;
3949;SDS011;53057;50.988;6.314;2023-04-03T13:11:47;6.43;;;1.50;;
3949;SDS011;53057;50.988;6.314;2023-04-03T13:14:16;4.30;;;1.00;;
3949;SDS011;53057;50.988;6.314;2023-04-03T13:16:53;4.07;;;1.20;;
3949;SDS011;53057;50.988;6.314;2023-04-03T13:19:22;3.83;;;1.00;;
3949;SDS011;53057;50.988;6.314;2023-04-03T13:21:49;1.63;;;1.53;;
3949;SDS011;53057;50.988;6.314;2023-04-03T13:24:18;3.73;;;1.67;;
3949;SDS011;53057;50.988;6.314;2023-04-03T13:26:44;5.80;;;1.70;;
3949;SDS011;53057;50.988;6.314;2023-04-03T13:29:22;4.47;;;1.00;;
3949;SDS011;53057;50.988;6.314;2023-04-03T13:31:56;4.23;;;1.73;;
3949;SDS011;53057;50.988;6.314;2023-04-03T13:34:25;1.80;;;1.37;;
3949;SDS011;53057;50.988;6.314;2023-04-03T13:36:55;3.07;;;1.33;;
3949;SDS011;53057;50.988;6.314;2023-04-03T13:41:53;3.90;;;1.20;;
3949;SDS011;53057;50.988;6.314;2023-04-03T13:46:51;1.97;;;1.30;;
3949;SDS011;53057;50.988;6.314;2023-04-03T13:49:35;9.00;;;1.30;;
3949;SDS011;53057;50.988;6.314;2023-04-03T13:57:58;1.90;;;1.33;;
3949;SDS011;53057;50.988;6.314;2023-04-03T14:02:53;2.90;;;1.50;;
3949;SDS011;53057;50.988;6.314;2023-04-03T14:05:20;5.13;;;1.37;;
3949;SDS011;53057;50.988;6.314;2023-04-03T14:07:47;2.83;;;1.73;;
3949;SDS011;53057;50.988;6.314;2023-04-03T14:10:14;3.40;;;1.47;;
3949;SDS011;53057;50.988;6.314;2023-04-03T14:12:40;3.87;;;1.47;;
3949;SDS011;53057;50.988;6.314;2023-04-03T14:15:22;3.43;;;1.20;;
3949;SDS011;53057;50.988;6.314;2023-04-03T14:17:50;1.10;;;1.00;;
3949;SDS011;53057;50.988;6.314;2023-04-03T14:20:19;1.50;;;1.30;;
3949;SDS011;53057;50.988;6.314;2023-04-03T14:22:46;1.57;;;1.10;;
3949;SDS011;53057;50.988;6.314;2023-04-03T14:25:12;2.43;;;1.20;;
3949;SDS011;53057;50.988;6.314;2023-04-03T14:27:41;1.50;;;1.23;;
3949;SDS011;53057;50.988;6.314;2023-04-03T14:30:09;2.70;;;1.20;;
3949;SDS011;53057;50.988;6.314;2023-04-03T14:32:39;0.80;;;0.60;;
3949;SDS011;53057;50.988;6.314;2023-04-03T14:35:05;2.10;;;1.13;;
3949;SDS011;53057;50.988;6.314;2023-04-03T14:37:32;2.10;;;1.40;;
3949;SDS011;53057;50.988;6.314;2023-04-03T14:40:00;3.37;;;1.60;;
3949;SDS011;53057;50.988;6.314;2023-04-03T14:42:29;2.07;;;1.00;;
3949;SDS011;53057;50.988;6.314;2023-04-03T14:44:57;8.20;;;1.30;;
3949;SDS011;53057;50.988;6.314;2023-04-03T14:47:25;1.87;;;1.30;;
3949;SDS011;53057;50.988;6.314;2023-04-03T14:50:01;2.03;;;1.33;;
3949;SDS011;53057;50.988;6.314;2023-04-03T14:52:32;2.10;;;1.07;;
3949;SDS011;53057;50.988;6.314;2023-04-03T14:55:00;3.83;;;1.20;;
3949;SDS011;53057;50.988;6.314;2023-04-03T14:57:27;7.67;;;2.23;;
3949;SDS011;53057;50.988;6.314;2023-04-03T14:59:55;5.83;;;1.70;;
3949;SDS011;53057;50.988;6.314;2023-04-03T15:02:29;3.33;;;1.30;;
3949;SDS011;53057;50.988;6.314;2023-04-03T15:04:56;4.83;;;1.60;;
3949;SDS011;53057;50.988;6.314;2023-04-03T15:07:24;5.00;;;2.07;;
3949;SDS011;53057;50.988;6.314;2023-04-03T15:09:51;2.60;;;1.47;;
3949;SDS011;53057;50.988;6.314;2023-04-03T15:12:18;3.43;;;1.73;;
3949;SDS011;53057;50.988;6.314;2023-04-03T15:14:44;5.23;;;1.50;;
3949;SDS011;53057;50.988;6.314;2023-04-03T15:17:19;1.57;;;1.30;;
3949;SDS011;53057;50.988;6.314;2023-04-03T15:19:48;5.13;;;1.57;;
3949;SDS011;53057;50.988;6.314;2023-04-03T15:22:15;2.17;;;1.50;;
3949;SDS011;53057;50.988;6.314;2023-04-03T15:24:43;2.60;;;1.63;;
3949;SDS011;53057;50.988;6.314;2023-04-03T15:27:10;4.27;;;2.03;;
3949;SDS011;53057;50.988;6.314;2023-04-03T15:29:38;2.13;;;1.60;;
3949;SDS011;53057;50.988;6.314;2023-04-03T15:32:05;1.63;;;1.50;;
3949;SDS011;53057;50.988;6.314;2023-04-03T15:34:32;6.00;;;1.90;;
3949;SDS011;53057;50.988;6.314;2023-04-03T15:36:58;4.17;;;1.80;;
3949;SDS011;53057;50.988;6.314;2023-04-03T15:39:25;3.53;;;1.43;;
3949;SDS011;53057;50.988;6.314;2023-04-03T15:41:58;2.80;;;1.70;;
3949;SDS011;53057;50.988;6.314;2023-04-03T15:44:33;7.90;;;1.90;;
3949;SDS011;53057;50.988;6.314;2023-04-03T15:47:00;5.00;;;1.80;;
3949;SDS011;53057;50.988;6.314;2023-04-03T15:49:27;4.07;;;1.73;;
3949;SDS011;53057;50.988;6.314;2023-04-03T15:51:54;5.00;;;2.10;;
3949;SDS011;53057;50.988;6.314;2023-04-03T15:54:21;5.17;;;1.63;;
3949;SDS011;53057;50.988;6.314;2023-04-03T15:56:47;3.27;;;1.73;;
3949;SDS011;53057;50.988;6.314;2023-04-03T15:59:15;5.73;;;2.20;;
3949;SDS011;53057;50.988;6.314;2023-04-03T16:01:42;4.10;;;1.63;;
3949;SDS011;53057;50.988;6.314;2023-04-03T16:04:09;5.37;;;3.70;;
3949;SDS011;53057;50.988;6.314;2023-04-03T16:06:36;4.83;;;2.07;;
3949;SDS011;53057;50.988;6.314;2023-04-03T16:09:03;3.93;;;1.77;;
3949;SDS011;53057;50.988;6.314;2023-04-03T16:11:30;9.57;;;2.00;;
3949;SDS011;53057;50.988;6.314;2023-04-03T16:13:57;2.80;;;1.33;;
3949;SDS011;53057;50.988;6.314;2023-04-03T16:16:23;3.40;;;1.77;;
3949;SDS011;53057;50.988;6.314;2023-04-03T16:18:51;3.80;;;2.00;;
3949;SDS011;53057;50.988;6.314;2023-04-03T16:21:17;9.20;;;1.60;;
3949;SDS011;53057;50.988;6.314;2023-04-03T16:23:44;6.23;;;1.90;;
3949;SDS011;53057;50.988;6.314;2023-04-03T16:26:11;6.40;;;2.00;;
3949;SDS011;53057;50.988;6.314;2023-04-03T16:28:37;8.93;;;3.50;;
3949;SDS011;53057;50.988;6.314;2023-04-03T16:31:04;4.73;;;1.77;;
3949;SDS011;53057;50.988;6.314;2023-04-03T16:33:31;4.47;;;1.80;;
3949;SDS011;53057;50.988;6.314;2023-04-03T16:35:58;7.03;;;3.23;;
3949;SDS011;53057;50.988;6.314;2023-04-03T16:38:25;10.97;;;1.90;;
3949;SDS011;53057;50.988;6.314;2023-04-03T16:40:51;3.77;;;2.13;;
3949;SDS011;53057;50.988;6.314;2023-04-03T16:43:22;9.33;;;3.03;;